Terminal Aerodrome Forecast
Issued by NWS

Home | Current Version | Previous Version | Text Only | Print | Product List | Glossary On
Versions: 1 2 3 4 5 6 7 8 9 10 11 12 13 14 15 16 17 18 19 20 21 22 23 24 25 26 27 28 29 30 31 32 33 34 35 36 37 38 39 40
000
FTUS41 KBOX 190536
TAFACK
TAF
KACK 190536Z 1906/2006 19011KT P6SM BKN040 BKN100 WS020/22050KT
     FM191100 20022G29KT 6SM -SHRA BR OVC040 WS020/22055KT
     FM191200 20023G30KT 4SM +SHRA BR OVC035 WS020/22060KT
     FM191600 22025G44KT 4SM -SHRA BR BKN025
     FM191800 25026G46KT P6SM BKN150
     FM192200 28022G36KT P6SM SKC=

USA.gov is the U.S. government's official web portal to all federal, state and local government web resources and services.